Spruce, Michigan
Current Conditions -  °F | °C
As of 8:54 AM on Monday 22 Dec 2014 (Local Time) from KAPN Reporting Station
Overcast Overcast  
Wind Chill: 20°   Ceiling: 2000
Heat Index: 29°   Visibility: 8mi
Dew Point: 24°   Wind: 10mph
Humidity: 82%   Direction: 180°S
Pressure: 30.11"   Gusts: NA
Location:  44.84°N, 83.47°W
Report Text: KAPN 221354Z AUTO 18009KT 8SM OVC020 M02/M04 A3011 RMK AO2 SLP205 T10171044
Loading
Personal Weather Stations






























Interactive Weather Map New forecast layout! Learn more

10-Day Weather Forecast

Advertisements
Track Severe Weather on mobile